Time;durP1;ratioP1;P1;durP2;ratioP2;P2;SDS_P1;SDS_P2;PMS_P1;PMS_P2;Temp;Humidity;BMP_temperature;BMP_pressure;BME280_temperature;BME280_humidity;BME280_pressure;Samples;Min_cycle;Max_cycle;Signal;HPM_P1;HPM_P2
2023/09/08 00:00:46;;;;;;;7.80;5.00;;;23.30;63.40;;;26.03;44.04;101886.38;4938995;29;20209;-66
2023/09/08 00:03:14;;;;;;;4.90;4.50;;;23.30;63.40;;;26.00;43.48;101886.84;4938953;29;20217;-67
2023/09/08 00:05:42;;;;;;;4.80;4.40;;;23.30;63.40;;;26.00;43.96;101884.16;4939063;29;20201;-66
2023/09/08 00:08:09;;;;;;;4.73;4.23;;;23.30;63.40;;;25.98;43.95;101884.38;4939019;29;20198;-66
2023/09/08 00:10:37;;;;;;;4.50;4.10;;;23.30;63.30;;;25.99;43.77;101885.22;4933461;29;20261;-66
2023/09/08 00:13:04;;;;;;;5.17;4.60;;;23.30;63.30;;;25.97;43.61;101882.78;4938967;29;20276;-66
2023/09/08 00:15:34;;;;;;;4.73;4.33;;;23.20;63.10;;;25.98;43.68;101886.28;4939086;29;20208;-66
2023/09/08 00:18:01;;;;;;;4.53;4.13;;;23.30;63.00;;;26.00;42.77;101881.47;4938812;29;20200;-66
2023/09/08 00:20:28;;;;;;;4.40;4.10;;;23.30;62.80;;;26.00;42.68;101876.88;4937969;29;20226;-66
2023/09/08 00:22:56;;;;;;;5.47;4.83;;;23.30;62.60;;;26.02;42.77;101873.94;4938587;29;20209;-66
2023/09/08 00:25:23;;;;;;;5.13;4.63;;;23.30;62.50;;;26.02;42.48;101866.66;4936445;29;20202;-66
2023/09/08 00:27:51;;;;;;;6.53;4.93;;;23.30;62.40;;;26.04;42.57;101866.41;4919695;29;20198;-65
2023/09/08 00:30:18;;;;;;;5.10;4.67;;;23.30;62.30;;;26.05;42.37;101868.03;4924781;29;20586;-65
2023/09/08 00:32:45;;;;;;;4.93;4.27;;;23.40;62.30;;;26.07;42.92;101869.44;4938731;29;20534;-66
2023/09/08 00:35:13;;;;;;;7.37;4.90;;;23.40;62.20;;;26.09;42.23;101871.88;4938661;29;20687;-66
2023/09/08 00:37:40;;;;;;;5.67;4.33;;;23.40;62.20;;;26.11;42.14;101872.47;4938373;29;20194;-66
2023/09/08 00:40:08;;;;;;;5.37;4.83;;;23.40;62.00;;;26.12;42.20;101874.09;4937954;29;20304;-66
2023/09/08 00:42:36;;;;;;;4.77;4.37;;;23.40;62.20;;;26.14;42.06;101877.38;4938187;29;20647;-66
2023/09/08 00:45:05;;;;;;;5.03;4.40;;;23.40;62.10;;;26.14;42.03;101877.38;4938333;29;20221;-66
2023/09/08 00:47:34;;;;;;;4.93;4.47;;;23.40;62.20;;;26.15;42.65;101879.81;4938182;29;20271;-66
2023/09/08 00:50:04;;;;;;;4.80;4.40;;;23.40;62.10;;;26.15;42.62;101873.59;4938028;29;20209;-66
2023/09/08 00:52:32;;;;;;;4.67;4.27;;;23.40;62.00;;;26.14;42.16;101871.97;4938158;29;20190;-68
2023/09/08 00:54:59;;;;;;;6.53;4.33;;;23.40;61.80;;;26.12;42.46;101877.63;4931891;29;20197;-66
2023/09/08 00:57:26;;;;;;;4.97;4.47;;;23.40;61.80;;;26.12;41.78;101874.09;4938374;29;20200;-66
2023/09/08 00:59:54;;;;;;;8.70;4.70;;;23.40;61.90;;;26.10;42.44;101870.81;4938155;29;20797;-66
2023/09/08 01:02:22;;;;;;;4.70;4.30;;;23.40;61.80;;;26.08;42.25;101872.91;4937352;29;20236;-67
2023/09/08 01:04:50;;;;;;;4.63;4.23;;;23.30;61.70;;;26.05;42.57;101870.75;4937579;29;20210;-66
2023/09/08 01:07:19;;;;;;;4.93;4.43;;;23.30;62.00;;;26.05;42.09;101873.44;4938181;29;20651;-66
2023/09/08 01:09:47;;;;;;;6.63;4.57;;;23.30;62.60;;;26.04;42.58;101869.91;4937279;29;20218;-67
2023/09/08 01:12:15;;;;;;;4.73;4.30;;;23.20;62.30;;;26.02;42.31;101872.06;4937610;29;20198;-67
2023/09/08 01:14:42;;;;;;;4.80;4.03;;;23.20;62.60;;;26.00;42.71;101867.97;4937821;29;20213;-67
2023/09/08 01:17:10;;;;;;;4.83;4.43;;;23.30;62.70;;;25.97;43.03;101869.28;4937971;29;20194;-67
2023/09/08 01:19:38;;;;;;;5.27;4.77;;;23.20;62.80;;;25.94;42.49;101866.25;4937390;29;20227;-67
2023/09/08 01:22:45;;;;;;;5.53;4.90;;;23.20;63.10;;;25.83;42.68;101869.88;4937148;29;20204;-66
2023/09/08 01:25:20;;;;;;;4.83;4.37;;;23.20;63.50;;;25.83;42.87;101869.88;4936979;29;20269;-66
2023/09/08 01:27:52;;;;;;;5.10;4.60;;;23.10;63.50;;;25.80;43.53;101860.38;4918642;29;20190;-66
2023/09/08 01:30:21;;;;;;;5.13;4.57;;;23.10;63.70;;;25.78;43.67;101864.41;4922474;29;20709;-67
2023/09/08 01:32:50;;;;;;;6.10;4.63;;;23.00;63.80;;;25.74;43.08;101863.28;4937427;29;20697;-66
2023/09/08 01:35:17;;;;;;;4.80;4.40;;;23.00;64.00;;;25.69;43.67;101861.31;4937324;29;20280;-67
2023/09/08 01:37:46;;;;;;;5.13;4.63;;;22.90;64.20;;;25.67;43.74;101859.91;4937033;29;20649;-67
2023/09/08 01:40:15;;;;;;;5.17;4.77;;;22.90;64.80;;;25.66;43.93;101858.28;4922741;29;20257;-66
2023/09/08 01:42:43;;;;;;;5.50;5.03;;;22.90;64.80;;;25.63;43.98;101850.66;4936805;29;20615;-67
2023/09/08 01:45:10;;;;;;;6.37;5.77;;;22.90;64.70;;;25.61;44.08;101855.50;4937123;29;20300;-67
2023/09/08 01:47:37;;;;;;;5.70;5.10;;;22.80;64.70;;;25.57;44.21;101859.75;4936733;29;20197;-66
2023/09/08 01:50:06;;;;;;;5.73;5.10;;;22.80;65.00;;;25.54;44.08;101852.97;4936729;29;20245;-67
2023/09/08 01:52:33;;;;;;;5.57;4.77;;;22.80;65.00;;;25.51;44.16;101851.59;4937057;29;20201;-67
2023/09/08 01:55:00;;;;;;;6.97;4.90;;;22.80;65.20;;;25.48;43.86;101841.28;4919521;29;20271;-66
2023/09/08 01:57:28;;;;;;;5.17;4.73;;;22.70;65.10;;;25.44;44.17;101842.84;4917776;29;20198;-67
2023/09/08 01:59:55;;;;;;;5.17;4.80;;;22.70;65.10;;;25.39;43.63;101848.13;4917874;29;20305;-70
2023/09/08 02:02:22;;;;;;;5.53;5.03;;;22.60;65.90;;;25.35;44.33;101847.00;4936790;29;20233;-65
2023/09/08 02:04:49;;;;;;;6.63;4.70;;;22.60;65.10;;;25.32;43.86;101842.06;4936868;29;20292;-65
2023/09/08 02:07:16;;;;;;;5.90;5.33;;;22.60;65.30;;;25.30;44.06;101844.22;4936640;29;20205;-67
2023/09/08 02:09:44;;;;;;;5.47;4.97;;;22.60;65.30;;;25.27;43.79;101838.50;4936236;29;20226;-65
2023/09/08 02:12:11;;;;;;;5.30;4.80;;;22.50;65.40;;;25.25;43.82;101841.41;4936561;29;20322;-65
2023/09/08 02:14:39;;;;;;;5.93;5.27;;;22.50;65.30;;;25.21;44.34;101834.06;4936945;29;20185;-65
2023/09/08 02:17:06;;;;;;;5.47;4.97;;;22.50;65.30;;;25.16;44.36;101826.72;4936440;29;20198;-67
2023/09/08 02:19:33;;;;;;;5.93;5.00;;;22.50;65.40;;;25.13;44.30;101835.28;4920037;29;20273;-66
2023/09/08 02:22:00;;;;;;;4.83;4.43;;;22.40;65.40;;;25.12;44.45;101836.38;4945816;29;20249;-67
2023/09/08 02:24:27;;;;;;;5.57;4.90;;;22.40;65.50;;;25.12;44.46;101841.75;4936131;29;20628;-66
2023/09/08 02:26:54;;;;;;;5.37;4.87;;;22.40;65.80;;;25.14;44.10;101839.63;4918123;29;20202;-66
2023/09/08 02:29:22;;;;;;;5.30;4.80;;;22.40;65.90;;;25.17;44.34;101841.84;4917109;29;20214;-66
2023/09/08 02:31:50;;;;;;;6.03;4.70;;;22.40;65.90;;;25.20;44.60;101843.22;4928506;29;20682;-66
2023/09/08 02:34:18;;;;;;;4.93;4.53;;;22.40;65.80;;;25.21;44.47;101848.38;4936220;29;20194;-66
2023/09/08 02:36:47;;;;;;;5.13;4.63;;;22.40;65.80;;;25.20;44.20;101841.34;4935968;29;20194;-66
2023/09/08 02:39:14;;;;;;;5.03;4.53;;;22.50;65.80;;;25.18;43.79;101851.56;4926667;29;20283;-66
2023/09/08 02:41:41;;;;;;;4.83;4.40;;;22.40;65.70;;;25.17;44.25;101843.72;4927158;29;20202;-66
2023/09/08 02:44:08;;;;;;;4.87;4.43;;;22.40;65.60;;;25.14;43.93;101838.81;4935565;29;20214;-66
2023/09/08 02:46:35;;;;;;;4.83;4.37;;;22.40;65.70;;;25.10;43.83;101843.88;4936162;29;20200;-65
2023/09/08 02:49:04;;;;;;;5.10;4.60;;;22.40;65.70;;;25.07;43.93;101840.84;4936113;29;20213;-66
2023/09/08 02:51:31;;;;;;;5.17;4.67;;;22.40;65.70;;;25.02;44.78;101838.88;4928025;29;20238;-65
2023/09/08 02:53:58;;;;;;;4.93;4.53;;;22.30;65.90;;;25.01;44.83;101842.63;4927129;29;20618;-65
2023/09/08 02:56:25;;;;;;;5.30;4.80;;;22.30;66.00;;;24.96;44.84;101837.13;4936346;29;20201;-65
2023/09/08 02:58:52;;;;;;;5.30;4.67;;;22.30;66.10;;;24.94;44.86;101836.56;4935586;29;20702;-65
2023/09/08 03:01:20;;;;;;;6.53;4.80;;;22.20;66.00;;;24.91;44.55;101839.78;4935992;29;20217;-66
2023/09/08 03:03:48;;;;;;;6.20;5.40;;;22.30;66.20;;;24.89;44.48;101837.28;4936092;29;20253;-67
2023/09/08 03:06:20;;;;;;;5.67;5.13;;;22.20;66.10;;;24.89;44.85;101831.91;4936087;29;20217;-65
2023/09/08 03:08:47;;;;;;;5.60;5.10;;;22.20;66.20;;;24.88;44.77;101829.47;4935928;29;20210;-65
2023/09/08 03:11:14;;;;;;;5.70;4.63;;;22.20;66.40;;;24.88;44.28;101827.59;4935342;29;20209;-65
2023/09/08 03:13:41;;;;;;;7.83;5.53;;;22.20;66.40;;;24.88;44.94;101829.47;4936067;29;20189;-66
2023/09/08 03:16:09;;;;;;;5.90;5.03;;;22.20;66.40;;;24.86;45.01;101827.00;4936491;29;20647;-66
2023/09/08 03:18:37;;;;;;;5.93;5.23;;;22.20;66.40;;;24.86;44.94;101818.13;4935718;29;20305;-66
2023/09/08 03:21:11;;;;;;;5.20;4.73;;;22.20;66.60;;;24.83;44.70;101815.91;4935546;29;20254;-66
2023/09/08 03:23:41;;;;;;;6.20;5.57;;;22.20;66.60;;;24.78;44.86;101813.13;4936223;29;20623;-66
2023/09/08 03:26:10;;;;;;;5.70;5.20;;;22.20;66.60;;;24.76;44.96;101809.81;4928489;29;20213;-66
2023/09/08 03:28:38;;;;;;;5.27;4.87;;;22.20;66.50;;;24.75;45.05;101810.88;4920181;29;20215;-66
2023/09/08 03:31:06;;;;;;;5.33;4.83;;;22.20;66.60;;;24.74;44.97;101810.06;4924654;29;20200;-69
2023/09/08 03:33:34;;;;;;;5.97;5.30;;;22.10;66.60;;;24.74;45.25;101811.94;4939405;29;20193;-66
2023/09/08 03:36:01;;;;;;;6.23;5.07;;;22.10;66.80;;;24.71;45.42;101812.41;4940517;29;20763;-67
2023/09/08 03:38:28;;;;;;;6.40;5.70;;;22.10;66.80;;;24.66;45.31;101809.63;4938401;29;20200;-65
2023/09/08 03:40:56;;;;;;;6.60;5.97;;;22.10;67.10;;;24.59;45.31;101809.78;4939447;29;20273;-67
2023/09/08 03:43:23;;;;;;;6.23;5.63;;;22.00;67.10;;;24.52;45.44;101808.28;4939496;29;20309;-65
2023/09/08 03:45:50;;;;;;;6.30;5.27;;;22.00;67.40;;;24.48;45.47;101812.53;4939315;29;20224;-66
2023/09/08 03:48:18;;;;;;;8.53;5.43;;;21.90;67.40;;;24.45;45.74;101810.31;4938985;29;20221;-66
2023/09/08 03:50:45;;;;;;;6.77;5.50;;;21.90;67.70;;;24.44;45.90;101806.00;4938357;29;20201;-66
2023/09/08 03:53:13;;;;;;;6.67;5.60;;;21.90;67.90;;;24.45;46.12;101807.59;4923874;29;20240;-66
2023/09/08 03:55:40;;;;;;;6.17;5.23;;;21.90;67.90;;;24.41;45.80;101801.91;4939159;29;20711;-70
2023/09/08 03:58:08;;;;;;;5.87;5.33;;;21.80;68.00;;;24.42;46.06;101811.59;4939227;29;20217;-66
2023/09/08 04:00:35;;;;;;;6.77;5.63;;;21.80;68.00;;;24.42;45.69;101803.50;4938497;29;20327;-66
2023/09/08 04:03:03;;;;;;;6.10;5.57;;;21.80;68.10;;;24.41;45.84;101806.47;4938308;29;20194;-66
2023/09/08 04:05:30;;;;;;;6.83;5.47;;;21.80;68.30;;;24.41;45.58;101806.47;4938609;29;20222;-65
2023/09/08 04:07:57;;;;;;;5.77;5.27;;;21.80;68.10;;;24.43;45.88;101810.56;4939027;29;20194;-65
2023/09/08 04:10:25;;;;;;;6.80;5.70;;;21.80;68.20;;;24.45;46.01;101807.59;4938641;29;20308;-65
2023/09/08 04:12:52;;;;;;;6.50;5.90;;;21.80;68.30;;;24.44;45.84;101806.00;4938470;29;20204;-66
2023/09/08 04:15:20;;;;;;;7.77;5.57;;;21.80;68.50;;;24.43;46.23;101801.66;4938593;29;20192;-65
2023/09/08 04:17:48;;;;;;;6.20;5.10;;;21.80;68.50;;;24.42;46.03;101802.69;4939143;29;20208;-66
2023/09/08 04:20:15;;;;;;;6.13;5.37;;;21.80;68.50;;;24.43;45.91;101804.34;4940570;29;20294;-66
2023/09/08 04:22:42;;;;;;;6.13;5.37;;;21.80;68.60;;;24.43;45.74;101802.47;4948113;29;20274;-67
2023/09/08 04:25:10;;;;;;;5.67;5.13;;;21.80;68.80;;;24.47;45.69;101802.78;4943012;29;20251;-67
2023/09/08 04:27:37;;;;;;;5.80;4.90;;;21.80;68.70;;;24.48;45.72;101796.38;4945525;29;20588;-65
2023/09/08 04:30:06;;;;;;;6.80;5.60;;;21.80;68.70;;;24.49;46.19;101789.91;4938171;29;20745;-66
2023/09/08 04:32:37;;;;;;;6.67;5.97;;;21.80;68.70;;;24.49;45.93;101787.22;4937794;29;20197;-66
2023/09/08 04:35:05;;;;;;;7.07;5.63;;;21.80;68.90;;;24.47;45.90;101797.41;4937972;29;20221;-67
2023/09/08 04:37:34;;;;;;;7.93;6.33;;;21.80;68.70;;;24.44;46.25;101789.84;4937750;29;20198;-65
2023/09/08 04:40:02;;;;;;;9.13;5.87;;;21.80;69.00;;;24.44;46.12;101790.63;4937664;29;20218;-65
2023/09/08 04:42:29;;;;;;;5.70;5.10;;;21.70;68.90;;;24.41;46.39;101784.91;4938004;29;20198;-65
2023/09/08 04:44:56;;;;;;;8.17;5.40;;;21.70;69.00;;;24.39;46.54;101784.34;4937769;29;20757;-65
2023/09/08 04:47:23;;;;;;;12.50;6.07;;;21.80;69.20;;;24.38;46.44;101785.38;4938178;29;20222;-66
2023/09/08 04:49:52;;;;;;;7.97;5.93;;;21.70;69.50;;;24.35;46.52;101786.69;4937868;29;20611;-68
2023/09/08 04:52:19;;;;;;;7.60;6.30;;;21.70;69.60;;;24.32;46.65;101780.97;4937538;29;20323;-67
2023/09/08 04:54:46;;;;;;;9.27;5.97;;;21.70;69.70;;;24.30;46.19;101783.06;4929391;29;20232;-66
2023/09/08 04:57:13;;;;;;;7.20;6.50;;;21.70;69.70;;;24.29;46.59;101781.44;4938002;29;20196;-69
2023/09/08 04:59:50;;;;;;;7.47;6.13;;;21.70;69.70;;;24.24;46.62;101776.78;4936632;29;20301;-66
2023/09/08 05:02:18;;;;;;;8.27;6.67;;;21.60;69.70;;;24.20;46.92;101773.75;4937527;29;20198;-67
2023/09/08 05:04:46;;;;;;;7.70;7.00;;;21.60;69.70;;;24.17;46.56;101778.81;4937886;29;20221;-66
2023/09/08 05:07:14;;;;;;;8.80;6.63;;;21.50;70.00;;;24.13;47.07;101777.63;4937185;29;20201;-68
2023/09/08 05:09:41;;;;;;;7.67;6.90;;;21.60;70.30;;;24.10;46.97;101778.13;4930504;29;20225;-68
2023/09/08 05:12:08;;;;;;;6.70;6.10;;;21.50;70.40;;;24.05;46.70;101781.50;4927824;29;20198;-66
2023/09/08 05:14:37;;;;;;;8.73;6.90;;;21.50;70.50;;;24.03;47.57;101786.28;4937564;29;20201;-68
2023/09/08 05:17:04;;;;;;;10.17;6.27;;;21.50;70.70;;;24.04;47.41;101787.91;4937145;29;20667;-67
2023/09/08 05:19:31;;;;;;;8.10;6.47;;;21.50;70.80;;;24.03;47.54;101783.59;4936954;29;20217;-66
2023/09/08 05:21:59;;;;;;;6.03;5.50;;;21.40;70.70;;;24.08;47.04;101791.78;4937038;29;20233;-65
2023/09/08 05:24:27;;;;;;;9.03;6.63;;;21.40;70.70;;;24.12;47.16;101792.97;4937153;29;20221;-66
2023/09/08 05:26:54;;;;;;;7.13;6.43;;;21.40;70.80;;;24.12;46.79;101790.28;4932222;29;20726;-67
2023/09/08 05:29:21;;;;;;;7.07;6.37;;;21.40;70.90;;;24.13;46.94;101786.53;4936713;29;20312;-67
2023/09/08 05:31:48;;;;;;;7.37;6.03;;;21.50;70.90;;;24.07;47.25;101782.09;4935227;29;20190;-67
2023/09/08 05:34:15;;;;;;;8.33;7.53;;;21.40;71.00;;;24.04;47.26;101790.63;4920476;29;20585;-66
2023/09/08 05:36:43;;;;;;;7.60;6.80;;;21.40;71.20;;;24.03;47.57;101786.28;4917065;29;20285;-66
2023/09/08 05:39:11;;;;;;;7.70;6.83;;;21.40;71.10;;;24.02;47.09;101786.53;4925978;29;20321;-66
2023/09/08 05:41:39;;;;;;;8.20;7.20;;;21.40;71.10;;;24.03;47.09;101785.47;4936469;29;20734;-66
2023/09/08 05:44:06;;;;;;;8.23;7.40;;;21.40;71.40;;;24.03;47.70;101778.19;4936718;29;20190;-66
2023/09/08 05:46:33;;;;;;;10.87;7.70;;;21.40;71.60;;;24.04;47.74;101779.84;4936435;29;20218;-66
2023/09/08 05:49:00;;;;;;;9.40;6.67;;;21.40;71.70;;;24.05;47.53;101784.19;4936121;29;20643;-66
2023/09/08 05:51:28;;;;;;;8.90;7.23;;;21.40;71.80;;;24.08;47.88;101778.34;4935881;29;20190;-65
2023/09/08 05:53:55;;;;;;;12.97;7.00;;;21.40;71.80;;;24.11;47.50;101774.34;4936074;29;20407;-67
2023/09/08 05:56:26;;;;;;;14.70;7.13;;;21.40;71.90;;;24.10;47.82;101773.53;4935478;29;20249;-68
2023/09/08 05:58:54;;;;;;;9.67;7.23;;;21.40;71.70;;;24.11;47.64;101788.63;4936019;29;20671;-67
2023/09/08 06:01:21;;;;;;;9.63;7.13;;;21.50;71.90;;;24.12;47.46;101779.53;4935820;29;20285;-67
2023/09/08 06:03:49;;;;;;;8.87;6.63;;;21.50;71.70;;;24.15;47.69;101784.41;4936735;29;20201;-65
2023/09/08 06:06:16;;;;;;;8.73;7.67;;;21.50;71.80;;;24.17;47.43;101786.88;4934806;29;20209;-66
2023/09/08 06:08:43;;;;;;;8.47;7.13;;;21.50;71.80;;;24.19;47.51;101782.91;4936002;29;20237;-67
2023/09/08 06:11:12;;;;;;;8.63;6.80;;;21.50;71.80;;;24.20;47.46;101787.19;4935440;29;20216;-67
2023/09/08 06:13:39;;;;;;;10.13;7.33;;;21.50;71.80;;;24.21;47.65;101778.09;4936779;29;20198;-67
2023/09/08 06:16:07;;;;;;;9.23;7.63;;;21.50;71.80;;;24.21;47.83;101779.94;4936526;29;20258;-67
2023/09/08 06:18:39;;;;;;;7.83;6.50;;;21.50;72.00;;;24.24;47.45;101784.88;4935608;29;20291;-67
2023/09/08 06:21:07;;;;;;;8.90;7.87;;;21.60;72.10;;;24.26;47.33;101777.38;4935022;29;20207;-66
2023/09/08 06:23:34;;;;;;;8.83;7.93;;;21.60;72.10;;;24.33;47.83;101787.97;4936460;29;20205;-67
2023/09/08 06:26:04;;;;;;;8.93;7.60;;;21.60;71.90;;;24.38;47.67;101785.38;4930965;29;20209;-66
2023/09/08 06:28:31;;;;;;;9.87;6.90;;;21.70;72.20;;;24.42;47.68;101786.53;4934741;29;20202;-67
2023/09/08 06:30:58;;;;;;;6.77;6.03;;;21.70;72.00;;;24.41;46.93;101769.59;4935774;29;20196;-68
2023/09/08 06:33:26;;;;;;;8.90;7.60;;;21.70;71.80;;;24.46;47.27;101779.63;4917851;29;20207;-68
2023/09/08 06:35:53;;;;;;;8.57;7.07;;;21.80;71.80;;;24.47;47.23;101784.78;4916766;29;20667;-66
2023/09/08 06:38:21;;;;;;;11.07;7.40;;;21.80;71.90;;;24.54;47.20;101784.63;4920301;29;20215;-66
2023/09/08 06:40:48;;;;;;;7.77;7.07;;;21.90;71.80;;;24.63;47.26;101788.56;4935969;29;20285;-66
2023/09/08 06:43:15;;;;;;;8.90;7.33;;;21.90;71.70;;;24.70;47.37;101792.72;4936175;29;20221;-67
2023/09/08 06:45:42;;;;;;;8.23;6.87;;;21.90;71.70;;;24.75;47.09;101798.22;4929932;29;20674;-66
2023/09/08 06:48:09;;;;;;;11.67;7.73;;;22.00;71.60;;;24.75;46.67;101792.84;4935349;29;20674;-67
2023/09/08 06:50:38;;;;;;;9.57;7.30;;;22.00;71.50;;;24.82;46.67;101790.00;4935194;29;20681;-66
2023/09/08 06:53:05;;;;;;;9.00;7.67;;;22.10;71.40;;;24.88;46.40;101780.97;4935395;29;20198;-66
2023/09/08 06:55:32;;;;;;;11.80;7.40;;;22.10;71.30;;;24.92;46.68;101782.09;4935713;29;20218;-66
2023/09/08 06:57:59;;;;;;;9.23;7.80;;;22.20;71.10;;;24.96;46.43;101790.53;4935833;29;20709;-66
2023/09/08 07:00:26;;;;;;;8.03;7.23;;;22.30;71.10;;;24.99;46.10;101790.84;4934646;29;20233;-66
2023/09/08 07:02:53;;;;;;;8.27;6.97;;;22.30;70.80;;;25.04;46.02;101785.56;4938643;29;20216;-66
2023/09/08 07:05:20;;;;;;;8.97;7.30;;;22.30;70.50;;;25.19;45.70;101788.50;4939125;29;20675;-66
2023/09/08 07:07:49;;;;;;;6.80;6.13;;;22.30;70.70;;;25.50;45.34;101785.25;4939499;29;20645;-65
2023/09/08 07:10:17;;;;;;;9.70;7.07;;;22.50;70.60;;;25.90;44.74;101786.84;4927786;29;20250;-67
2023/09/08 07:12:44;;;;;;;7.23;6.00;;;22.60;70.50;;;26.49;44.20;101796.78;4920521;29;20199;-67
2023/09/08 07:15:11;;;;;;;8.50;7.07;;;23.00;71.00;;;27.13;42.50;101799.56;4920307;29;20210;-67
2023/09/08 07:17:38;;;;;;;7.43;6.63;;;23.30;69.20;;;27.75;41.72;101797.88;4919875;29;20230;-67
2023/09/08 07:20:07;;;;;;;6.97;5.93;;;23.80;68.00;;;28.44;40.67;101797.63;4938786;29;20232;-67
2023/09/08 07:22:34;;;;;;;8.43;6.67;;;24.40;66.70;;;29.02;39.08;101789.06;4939110;29;20236;-67
2023/09/08 07:25:03;;;;;;;6.70;5.80;;;24.90;64.10;;;29.60;37.76;101790.38;4939152;29;20597;-66
2023/09/08 07:27:30;;;;;;;7.27;6.57;;;25.40;62.60;;;30.14;36.27;101801.34;4920266;29;20285;-68
2023/09/08 07:29:57;;;;;;;7.37;6.40;;;25.90;60.20;;;30.55;35.84;101800.06;4937301;29;20265;-66
2023/09/08 07:32:24;;;;;;;6.90;6.20;;;26.30;58.90;;;31.00;35.49;101798.94;4937382;29;20197;-66
2023/09/08 07:34:55;;;;;;;7.27;6.27;;;26.80;58.10;;;31.42;34.14;101798.28;4928078;29;20226;-66
2023/09/08 07:37:24;;;;;;;7.03;6.30;;;27.20;57.30;;;31.90;33.61;101794.50;4938231;29;20225;-66
2023/09/08 07:39:51;;;;;;;7.07;6.47;;;27.60;56.10;;;32.25;32.74;101795.19;4923988;29;20224;-67
2023/09/08 07:42:20;;;;;;;7.57;6.87;;;27.90;54.90;;;32.56;32.21;101796.41;4919861;29;20202;-67
2023/09/08 07:44:47;;;;;;;8.07;6.13;;;28.20;53.80;;;32.99;31.65;101792.44;4926436;29;20229;-67
2023/09/08 07:47:14;;;;;;;12.07;6.43;;;28.60;53.00;;;33.46;31.18;101794.09;4932669;29;20618;-67
2023/09/08 07:49:49;;;;;;;8.20;6.07;;;29.00;52.30;;;33.95;30.69;101796.13;4934674;29;20218;-68
2023/09/08 07:52:16;;;;;;;7.97;6.73;;;29.40;51.20;;;34.35;29.46;101786.28;4937381;29;20192;-68
2023/09/08 07:54:43;;;;;;;7.70;6.63;;;29.70;49.80;;;34.71;29.25;101795.28;4938525;29;20299;-65
2023/09/08 07:57:10;;;;;;;6.23;5.60;;;30.00;49.10;;;35.02;29.31;101787.13;4938667;29;20276;-67
2023/09/08 07:59:38;;;;;;;9.03;6.20;;;30.20;48.30;;;35.25;28.06;101781.34;4937905;29;20240;-67
2023/09/08 08:02:06;;;;;;;6.53;5.43;;;30.50;47.50;;;35.51;28.41;101784.22;4938231;29;20206;-67
2023/09/08 08:04:33;;;;;;;8.88;6.03;;;30.70;46.90;;;35.65;27.92;101784.94;4938308;29;20635;-67
2023/09/08 08:07:01;;;;;;;6.10;5.30;;;30.90;46.50;;;35.79;27.38;101795.78;4938279;29;20214;-66
2023/09/08 08:09:28;;;;;;;6.50;5.90;;;31.00;46.00;;;36.01;27.26;101782.00;4932812;29;20225;-67
2023/09/08 08:11:55;;;;;;;6.73;5.70;;;31.20;45.60;;;36.22;27.21;101788.47;4919354;29;20707;-67
2023/09/08 08:14:22;;;;;;;6.57;5.75;;;31.40;45.20;;;36.43;27.09;101791.38;4918963;29;20229;-67
2023/09/08 08:16:51;;;;;;;6.45;5.95;;;31.60;45.00;;;36.65;26.33;101785.75;4919209;29;20286;-67
2023/09/08 08:19:18;;;;;;;6.55;5.95;;;31.80;44.30;;;36.80;26.26;101788.00;4933045;29;20304;-67
2023/09/08 08:21:45;;;;;;;6.03;5.47;;;32.00;44.10;;;36.88;26.61;101781.69;4937486;29;20288;-66
2023/09/08 08:24:12;;;;;;;8.25;5.95;;;32.20;43.70;;;37.12;25.82;101784.72;4937976;29;20232;-66
2023/09/08 08:26:39;;;;;;;6.35;5.85;;;32.30;43.50;;;37.41;25.70;101780.47;4932786;29;20322;-68
2023/09/08 08:29:06;;;;;;;6.72;5.53;;;32.30;43.30;;;37.67;25.08;101779.22;4937171;29;20268;-67
2023/09/08 08:31:33;;;;;;;6.32;5.40;;;32.40;43.10;;;38.01;24.89;101783.72;4937694;29;20194;-67
2023/09/08 08:34:02;;;;;;;6.18;5.63;;;32.60;42.90;;;38.41;24.56;101781.34;4937901;29;20253;-67
2023/09/08 08:36:29;;;;;;;6.13;5.63;;;32.90;42.30;;;38.91;24.16;101783.97;4936984;29;20643;-67
2023/09/08 08:38:57;;;;;;;7.97;6.05;;;33.20;42.10;;;39.37;23.67;101778.09;4936031;29;20221;-67
2023/09/08 08:41:24;;;;;;;6.28;5.88;;;33.60;41.30;;;39.67;23.52;101784.25;4937191;29;20205;-67
2023/09/08 08:43:53;;;;;;;5.78;5.28;;;33.90;40.60;;;39.73;23.49;101777.31;4932360;29;21330;-68
2023/09/08 08:46:22;;;;;;;5.95;5.40;;;34.20;40.20;;;39.41;23.48;101776.28;4940858;29;20261;-66
2023/09/08 08:48:54;;;;;;;6.60;6.10;;;34.50;39.50;;;39.00;24.02;101779.16;4924186;29;20225;-66
2023/09/08 08:51:24;;;;;;;8.70;5.95;;;34.50;39.20;;;39.03;23.89;101781.25;4936874;29;20273;-66
2023/09/08 08:53:52;;;;;;;7.47;5.53;;;34.50;40.10;;;39.47;24.10;101774.09;4928278;29;20199;-66
2023/09/08 08:56:19;;;;;;;6.88;5.57;;;34.50;39.50;;;40.18;22.61;101783.47;4916913;29;20273;-65
2023/09/08 08:58:48;;;;;;;8.50;5.30;;;34.80;39.60;;;40.91;22.48;101783.25;4924172;29;21009;-66
2023/09/08 09:01:17;;;;;;;7.88;5.25;;;35.10;39.10;;;41.61;21.31;101778.72;4937524;29;20253;-68
2023/09/08 09:03:48;;;;;;;9.15;5.55;;;35.40;37.90;;;42.07;20.59;101779.78;4937066;29;20607;-65
2023/09/08 09:06:16;;;;;;;8.57;6.03;;;35.80;36.90;;;42.36;20.58;101785.59;4937257;29;20210;-67
2023/09/08 09:08:46;;;;;;;5.75;5.20;;;36.20;36.30;;;42.47;19.96;101778.31;4936344;29;20241;-67
2023/09/08 09:11:14;;;;;;;7.10;5.30;;;36.30;35.30;;;42.52;20.20;101776.44;4936490;29;20223;-67
2023/09/08 09:13:41;;;;;;;6.80;6.13;;;36.50;35.10;;;42.63;20.10;101775.47;4936698;29;20561;-67
2023/09/08 09:16:10;;;;;;;6.28;5.72;;;36.70;34.70;;;42.51;19.89;101772.06;4936386;29;20344;-67
2023/09/08 09:18:57;;;;;;;5.97;5.47;;;36.70;34.20;;;42.35;20.22;101764.59;4926354;29;20921;-69
2023/09/08 09:21:41;;;;;;;5.70;5.30;;;36.80;34.30;;;42.32;20.43;101765.31;4917730;29;20187;-66
2023/09/08 09:24:14;;;;;;;5.72;5.15;;;36.80;34.60;;;42.44;20.19;101767.94;4917667;29;20198;-66
2023/09/08 09:26:44;;;;;;;5.35;4.85;;;36.80;34.60;;;42.62;19.86;101759.22;4923206;29;20233;-67
2023/09/08 09:29:14;;;;;;;7.10;5.30;;;36.90;34.60;;;42.91;19.84;101758.59;4935587;29;20316;-67
2023/09/08 09:31:52;;;;;;;6.15;5.50;;;37.20;33.90;;;43.26;19.24;101748.09;4936692;29;20221;-67
2023/09/08 09:34:21;;;;;;;5.85;5.30;;;37.40;33.60;;;43.60;19.66;101757.38;4936279;29;20277;-67
2023/09/08 09:36:49;;;;;;;6.10;5.25;;;37.60;33.50;;;43.86;19.11;101749.06;4935838;29;20218;-67
2023/09/08 09:39:19;;;;;;;6.20;5.47;;;37.90;33.50;;;44.23;18.91;101751.91;4926168;29;20303;-66
2023/09/08 09:41:46;;;;;;;5.38;4.97;;;38.30;33.40;;;44.69;17.97;101750.50;4917327;29;20274;-66
2023/09/08 09:44:15;;;;;;;6.70;6.07;;;38.50;32.20;;;44.84;18.54;101762.56;4920173;29;20509;-67
2023/09/08 09:46:45;;;;;;;5.53;5.03;;;38.70;31.60;;;44.98;18.09;101760.69;4936178;29;20237;-68
2023/09/08 09:49:14;;;;;;;5.72;5.13;;;38.90;31.30;;;45.26;18.09;101756.59;4916600;29;20269;-67
2023/09/08 09:51:43;;;;;;;5.50;5.00;;;39.10;31.30;;;45.46;17.16;101755.13;4922676;29;20749;-67
2023/09/08 09:54:11;;;;;;;5.65;5.15;;;39.20;30.60;;;45.55;17.56;101750.06;4936075;29;20668;-67
2023/09/08 09:56:41;;;;;;;7.75;5.28;;;39.40;30.80;;;45.35;17.28;101745.94;4935831;29;20222;-67
2023/09/08 09:59:13;;;;;;;8.73;7.93;;;39.40;30.60;;;44.98;17.51;101749.56;4916226;29;20620;-67
2023/09/08 10:01:42;;;;;;;5.25;4.85;;;39.50;30.10;;;44.53;18.43;101740.78;4923693;29;20284;-67
2023/09/08 10:04:10;;;;;;;5.93;5.43;;;39.30;30.00;;;43.90;19.03;101743.53;4936147;29;20272;-66
2023/09/08 10:06:39;;;;;;;6.68;5.30;;;39.20;30.50;;;43.25;19.24;101746.47;4935633;29;20236;-67
2023/09/08 10:09:13;;;;;;;6.15;5.65;;;38.90;30.10;;;42.48;19.78;101743.88;4932326;29;20228;-68
2023/09/08 10:11:46;;;;;;;8.13;5.80;;;38.40;30.70;;;41.63;20.34;101740.41;4923294;29;20213;-66
2023/09/08 10:14:15;;;;;;;7.03;5.47;;;37.80;31.60;;;41.04;21.68;101746.06;4935868;29;20222;-66
2023/09/08 10:16:49;;;;;;;5.57;5.10;;;37.20;33.00;;;40.86;21.39;101742.06;4935364;29;20265;-66